sensor_id;sensor_type;location;lat;lon;timestamp;P1;durP1;ratioP1;P2;durP2;ratioP2
2872;SDS011;1444;49.166;7.312;2023-05-10T00:02:00;4.47;;;4.07;;
2872;SDS011;1444;49.166;7.312;2023-05-10T00:04:26;4.03;;;3.73;;
2872;SDS011;1444;49.166;7.312;2023-05-10T00:06:53;4.13;;;3.80;;
2872;SDS011;1444;49.166;7.312;2023-05-10T00:09:20;5.70;;;4.57;;
2872;SDS011;1444;49.166;7.312;2023-05-10T00:11:49;4.40;;;4.10;;
2872;SDS011;1444;49.166;7.312;2023-05-10T00:14:16;4.50;;;4.10;;
2872;SDS011;1444;49.166;7.312;2023-05-10T00:16:43;4.73;;;4.40;;
2872;SDS011;1444;49.166;7.312;2023-05-10T00:19:10;5.13;;;4.63;;
2872;SDS011;1444;49.166;7.312;2023-05-10T00:21:37;5.10;;;4.60;;
2872;SDS011;1444;49.166;7.312;2023-05-10T00:24:04;4.90;;;4.50;;
2872;SDS011;1444;49.166;7.312;2023-05-10T00:26:31;6.73;;;5.80;;
2872;SDS011;1444;49.166;7.312;2023-05-10T00:28:59;7.33;;;6.53;;
2872;SDS011;1444;49.166;7.312;2023-05-10T00:31:26;9.60;;;6.43;;
2872;SDS011;1444;49.166;7.312;2023-05-10T00:33:53;6.63;;;6.03;;
2872;SDS011;1444;49.166;7.312;2023-05-10T00:36:20;6.13;;;4.77;;
2872;SDS011;1444;49.166;7.312;2023-05-10T00:38:47;5.43;;;5.00;;
2872;SDS011;1444;49.166;7.312;2023-05-10T00:41:14;5.83;;;5.33;;
2872;SDS011;1444;49.166;7.312;2023-05-10T00:43:41;8.47;;;5.57;;
2872;SDS011;1444;49.166;7.312;2023-05-10T00:46:09;6.07;;;4.70;;
2872;SDS011;1444;49.166;7.312;2023-05-10T00:48:39;5.70;;;5.10;;
2872;SDS011;1444;49.166;7.312;2023-05-10T00:51:06;6.90;;;5.90;;
2872;SDS011;1444;49.166;7.312;2023-05-10T00:53:33;6.63;;;6.00;;
2872;SDS011;1444;49.166;7.312;2023-05-10T00:56:01;5.60;;;5.10;;
2872;SDS011;1444;49.166;7.312;2023-05-10T00:58:28;6.47;;;5.80;;
2872;SDS011;1444;49.166;7.312;2023-05-10T01:00:56;6.90;;;5.60;;
2872;SDS011;1444;49.166;7.312;2023-05-10T01:03:25;7.63;;;5.27;;
2872;SDS011;1444;49.166;7.312;2023-05-10T01:05:52;7.03;;;6.30;;
2872;SDS011;1444;49.166;7.312;2023-05-10T01:08:19;6.07;;;5.47;;
2872;SDS011;1444;49.166;7.312;2023-05-10T01:10:46;7.80;;;5.23;;
2872;SDS011;1444;49.166;7.312;2023-05-10T01:13:14;5.30;;;4.80;;
2872;SDS011;1444;49.166;7.312;2023-05-10T01:15:53;5.20;;;4.70;;
2872;SDS011;1444;49.166;7.312;2023-05-10T01:18:21;7.97;;;7.17;;
2872;SDS011;1444;49.166;7.312;2023-05-10T01:20:52;8.20;;;5.73;;
2872;SDS011;1444;49.166;7.312;2023-05-10T01:23:55;7.07;;;6.37;;
2872;SDS011;1444;49.166;7.312;2023-05-10T01:26:52;6.53;;;6.00;;
2872;SDS011;1444;49.166;7.312;2023-05-10T01:29:43;4.80;;;4.40;;
2872;SDS011;1444;49.166;7.312;2023-05-10T01:32:30;5.53;;;5.03;;
2872;SDS011;1444;49.166;7.312;2023-05-10T01:35:03;6.33;;;5.63;;
2872;SDS011;1444;49.166;7.312;2023-05-10T01:37:38;5.60;;;5.07;;
2872;SDS011;1444;49.166;7.312;2023-05-10T01:40:13;9.23;;;5.80;;
2872;SDS011;1444;49.166;7.312;2023-05-10T01:42:47;6.17;;;5.67;;
2872;SDS011;1444;49.166;7.312;2023-05-10T01:45:19;6.50;;;5.90;;
2872;SDS011;1444;49.166;7.312;2023-05-10T01:50:55;12.13;;;7.20;;
2872;SDS011;1444;49.166;7.312;2023-05-10T01:53:23;7.73;;;6.53;;
2872;SDS011;1444;49.166;7.312;2023-05-10T01:55:52;8.40;;;6.43;;
2872;SDS011;1444;49.166;7.312;2023-05-10T01:58:22;9.20;;;8.17;;
2872;SDS011;1444;49.166;7.312;2023-05-10T02:00:53;10.07;;;6.87;;
2872;SDS011;1444;49.166;7.312;2023-05-10T02:03:21;7.13;;;6.00;;
2872;SDS011;1444;49.166;7.312;2023-05-10T02:05:51;13.37;;;7.30;;
2872;SDS011;1444;49.166;7.312;2023-05-10T02:08:21;6.90;;;6.10;;
2872;SDS011;1444;49.166;7.312;2023-05-10T02:10:49;11.93;;;6.57;;
2872;SDS011;1444;49.166;7.312;2023-05-10T02:13:18;8.00;;;7.20;;
2872;SDS011;1444;49.166;7.312;2023-05-10T02:15:48;8.60;;;7.13;;
2872;SDS011;1444;49.166;7.312;2023-05-10T02:18:16;17.77;;;8.63;;
2872;SDS011;1444;49.166;7.312;2023-05-10T02:20:44;7.77;;;7.00;;
2872;SDS011;1444;49.166;7.312;2023-05-10T02:23:13;8.17;;;7.27;;
2872;SDS011;1444;49.166;7.312;2023-05-10T02:25:42;9.17;;;7.00;;
2872;SDS011;1444;49.166;7.312;2023-05-10T02:28:10;7.97;;;7.17;;
2872;SDS011;1444;49.166;7.312;2023-05-10T02:30:39;7.23;;;6.43;;
2872;SDS011;1444;49.166;7.312;2023-05-10T02:33:07;8.17;;;6.70;;
2872;SDS011;1444;49.166;7.312;2023-05-10T02:35:34;13.40;;;7.67;;
2872;SDS011;1444;49.166;7.312;2023-05-10T02:38:04;10.77;;;8.17;;
2872;SDS011;1444;49.166;7.312;2023-05-10T02:40:33;8.13;;;7.33;;
2872;SDS011;1444;49.166;7.312;2023-05-10T02:43:02;7.87;;;7.07;;
2872;SDS011;1444;49.166;7.312;2023-05-10T02:45:32;14.80;;;7.53;;
2872;SDS011;1444;49.166;7.312;2023-05-10T02:48:01;9.30;;;8.40;;
2872;SDS011;1444;49.166;7.312;2023-05-10T02:50:28;8.80;;;7.03;;
2872;SDS011;1444;49.166;7.312;2023-05-10T02:52:59;10.80;;;8.47;;
2872;SDS011;1444;49.166;7.312;2023-05-10T02:55:31;9.97;;;8.53;;
2872;SDS011;1444;49.166;7.312;2023-05-10T02:58:02;9.50;;;8.10;;
2872;SDS011;1444;49.166;7.312;2023-05-10T03:00:30;10.47;;;9.03;;
2872;SDS011;1444;49.166;7.312;2023-05-10T03:02:57;11.83;;;8.87;;
2872;SDS011;1444;49.166;7.312;2023-05-10T03:05:24;13.23;;;8.43;;
2872;SDS011;1444;49.166;7.312;2023-05-10T03:07:51;9.90;;;8.00;;
2872;SDS011;1444;49.166;7.312;2023-05-10T03:10:19;12.23;;;7.87;;
2872;SDS011;1444;49.166;7.312;2023-05-10T03:12:56;12.10;;;9.40;;
2872;SDS011;1444;49.166;7.312;2023-05-10T03:15:33;13.17;;;9.83;;
2872;SDS011;1444;49.166;7.312;2023-05-10T03:18:09;13.37;;;9.30;;
2872;SDS011;1444;49.166;7.312;2023-05-10T03:20:41;11.57;;;10.00;;
2872;SDS011;1444;49.166;7.312;2023-05-10T03:23:12;15.00;;;10.23;;
2872;SDS011;1444;49.166;7.312;2023-05-10T03:25:48;10.07;;;8.47;;
2872;SDS011;1444;49.166;7.312;2023-05-10T03:28:17;10.57;;;8.67;;
2872;SDS011;1444;49.166;7.312;2023-05-10T03:30:46;10.17;;;8.47;;
2872;SDS011;1444;49.166;7.312;2023-05-10T03:33:13;11.20;;;9.27;;
2872;SDS011;1444;49.166;7.312;2023-05-10T03:35:41;10.60;;;6.60;;
2872;SDS011;1444;49.166;7.312;2023-05-10T03:38:10;6.83;;;6.13;;
2872;SDS011;1444;49.166;7.312;2023-05-10T03:40:37;6.10;;;4.90;;
2872;SDS011;1444;49.166;7.312;2023-05-10T03:43:04;5.50;;;5.00;;
2872;SDS011;1444;49.166;7.312;2023-05-10T03:45:33;5.87;;;5.10;;
2872;SDS011;1444;49.166;7.312;2023-05-10T03:47:59;6.80;;;5.10;;
2872;SDS011;1444;49.166;7.312;2023-05-10T03:50:27;7.37;;;5.60;;
2872;SDS011;1444;49.166;7.312;2023-05-10T03:52:53;7.03;;;5.87;;
2872;SDS011;1444;49.166;7.312;2023-05-10T03:55:20;8.13;;;5.87;;
2872;SDS011;1444;49.166;7.312;2023-05-10T03:57:47;4.23;;;3.80;;
2872;SDS011;1444;49.166;7.312;2023-05-10T04:00:14;5.83;;;5.23;;
2872;SDS011;1444;49.166;7.312;2023-05-10T04:02:43;4.53;;;4.07;;
2872;SDS011;1444;49.166;7.312;2023-05-10T04:05:10;6.50;;;5.90;;
2872;SDS011;1444;49.166;7.312;2023-05-10T04:07:37;7.53;;;5.40;;
2872;SDS011;1444;49.166;7.312;2023-05-10T04:10:04;5.77;;;5.27;;
2872;SDS011;1444;49.166;7.312;2023-05-10T04:12:32;4.40;;;4.00;;
2872;SDS011;1444;49.166;7.312;2023-05-10T04:14:59;4.63;;;3.60;;
2872;SDS011;1444;49.166;7.312;2023-05-10T04:17:26;4.37;;;3.97;;
2872;SDS011;1444;49.166;7.312;2023-05-10T04:19:54;7.10;;;4.20;;
2872;SDS011;1444;49.166;7.312;2023-05-10T04:22:22;4.03;;;3.40;;
2872;SDS011;1444;49.166;7.312;2023-05-10T04:24:49;4.07;;;3.00;;
2872;SDS011;1444;49.166;7.312;2023-05-10T04:27:16;3.80;;;3.00;;
2872;SDS011;1444;49.166;7.312;2023-05-10T04:29:43;4.80;;;3.47;;
2872;SDS011;1444;49.166;7.312;2023-05-10T04:32:10;4.93;;;3.40;;
2872;SDS011;1444;49.166;7.312;2023-05-10T04:34:37;6.53;;;4.03;;
2872;SDS011;1444;49.166;7.312;2023-05-10T04:37:05;4.30;;;3.90;;
2872;SDS011;1444;49.166;7.312;2023-05-10T04:39:32;5.80;;;4.40;;
2872;SDS011;1444;49.166;7.312;2023-05-10T04:42:00;3.70;;;3.40;;
2872;SDS011;1444;49.166;7.312;2023-05-10T04:44:28;5.23;;;3.73;;
2872;SDS011;1444;49.166;7.312;2023-05-10T04:46:55;6.13;;;4.17;;
2872;SDS011;1444;49.166;7.312;2023-05-10T04:49:22;5.73;;;4.10;;
2872;SDS011;1444;49.166;7.312;2023-05-10T04:51:49;5.13;;;4.17;;
2872;SDS011;1444;49.166;7.312;2023-05-10T04:54:18;7.80;;;3.47;;
2872;SDS011;1444;49.166;7.312;2023-05-10T04:56:44;2.80;;;2.60;;
2872;SDS011;1444;49.166;7.312;2023-05-10T04:59:11;4.23;;;3.40;;
2872;SDS011;1444;49.166;7.312;2023-05-10T05:01:38;3.13;;;2.83;;
2872;SDS011;1444;49.166;7.312;2023-05-10T05:04:05;3.80;;;3.33;;
2872;SDS011;1444;49.166;7.312;2023-05-10T05:06:32;3.67;;;3.33;;
2872;SDS011;1444;49.166;7.312;2023-05-10T05:08:59;3.57;;;3.27;;
2872;SDS011;1444;49.166;7.312;2023-05-10T05:11:28;3.27;;;3.00;;
2872;SDS011;1444;49.166;7.312;2023-05-10T05:13:55;4.40;;;3.80;;
2872;SDS011;1444;49.166;7.312;2023-05-10T05:16:24;4.97;;;4.00;;
2872;SDS011;1444;49.166;7.312;2023-05-10T05:18:51;5.50;;;3.30;;
2872;SDS011;1444;49.166;7.312;2023-05-10T05:21:18;4.43;;;4.00;;
2872;SDS011;1444;49.166;7.312;2023-05-10T05:23:46;3.83;;;3.43;;
2872;SDS011;1444;49.166;7.312;2023-05-10T05:26:14;4.87;;;4.00;;
2872;SDS011;1444;49.166;7.312;2023-05-10T05:28:42;4.80;;;3.83;;
2872;SDS011;1444;49.166;7.312;2023-05-10T05:31:09;4.17;;;3.73;;
2872;SDS011;1444;49.166;7.312;2023-05-10T05:33:36;4.10;;;3.70;;
2872;SDS011;1444;49.166;7.312;2023-05-10T05:36:04;4.03;;;3.30;;
2872;SDS011;1444;49.166;7.312;2023-05-10T05:38:31;9.43;;;3.90;;
2872;SDS011;1444;49.166;7.312;2023-05-10T05:40:58;5.70;;;3.70;;
2872;SDS011;1444;49.166;7.312;2023-05-10T05:43:25;3.33;;;3.10;;
2872;SDS011;1444;49.166;7.312;2023-05-10T05:45:53;4.00;;;2.80;;
2872;SDS011;1444;49.166;7.312;2023-05-10T05:48:22;2.77;;;2.50;;
2872;SDS011;1444;49.166;7.312;2023-05-10T05:50:49;3.97;;;3.20;;
2872;SDS011;1444;49.166;7.312;2023-05-10T05:53:20;7.03;;;3.50;;
2872;SDS011;1444;49.166;7.312;2023-05-10T05:55:53;3.67;;;3.30;;
2872;SDS011;1444;49.166;7.312;2023-05-10T05:58:20;3.37;;;3.17;;
2872;SDS011;1444;49.166;7.312;2023-05-10T06:00:47;6.27;;;3.23;;
2872;SDS011;1444;49.166;7.312;2023-05-10T06:03:16;3.40;;;2.90;;
2872;SDS011;1444;49.166;7.312;2023-05-10T06:05:43;3.40;;;3.10;;
2872;SDS011;1444;49.166;7.312;2023-05-10T06:08:10;3.23;;;2.93;;
2872;SDS011;1444;49.166;7.312;2023-05-10T06:10:37;3.50;;;3.20;;
2872;SDS011;1444;49.166;7.312;2023-05-10T06:13:04;4.30;;;2.87;;
2872;SDS011;1444;49.166;7.312;2023-05-10T06:15:30;8.23;;;3.80;;
2872;SDS011;1444;49.166;7.312;2023-05-10T06:17:58;6.40;;;3.43;;
2872;SDS011;1444;49.166;7.312;2023-05-10T06:20:27;4.40;;;3.97;;
2872;SDS011;1444;49.166;7.312;2023-05-10T06:22:54;6.43;;;3.73;;
2872;SDS011;1444;49.166;7.312;2023-05-10T06:25:20;2.93;;;2.50;;
2872;SDS011;1444;49.166;7.312;2023-05-10T06:27:47;3.40;;;3.10;;
2872;SDS011;1444;49.166;7.312;2023-05-10T06:30:14;4.23;;;3.90;;
2872;SDS011;1444;49.166;7.312;2023-05-10T06:32:41;5.10;;;4.30;;
2872;SDS011;1444;49.166;7.312;2023-05-10T06:35:10;3.30;;;3.00;;
2872;SDS011;1444;49.166;7.312;2023-05-10T06:37:38;4.57;;;4.17;;
2872;SDS011;1444;49.166;7.312;2023-05-10T06:40:05;4.57;;;4.03;;
2872;SDS011;1444;49.166;7.312;2023-05-10T06:42:34;5.60;;;3.20;;
2872;SDS011;1444;49.166;7.312;2023-05-10T06:45:01;3.03;;;2.73;;
2872;SDS011;1444;49.166;7.312;2023-05-10T06:47:29;6.20;;;3.53;;
2872;SDS011;1444;49.166;7.312;2023-05-10T06:49:56;7.50;;;2.90;;
2872;SDS011;1444;49.166;7.312;2023-05-10T06:52:23;3.77;;;3.47;;
2872;SDS011;1444;49.166;7.312;2023-05-10T06:54:51;6.53;;;3.10;;
2872;SDS011;1444;49.166;7.312;2023-05-10T06:57:18;4.53;;;4.03;;
2872;SDS011;1444;49.166;7.312;2023-05-10T06:59:45;3.87;;;3.57;;
2872;SDS011;1444;49.166;7.312;2023-05-10T07:02:12;3.17;;;2.97;;
2872;SDS011;1444;49.166;7.312;2023-05-10T07:04:39;3.60;;;3.30;;
2872;SDS011;1444;49.166;7.312;2023-05-10T07:07:06;3.43;;;3.13;;
2872;SDS011;1444;49.166;7.312;2023-05-10T07:09:33;2.93;;;2.60;;
2872;SDS011;1444;49.166;7.312;2023-05-10T07:12:01;2.10;;;1.83;;
2872;SDS011;1444;49.166;7.312;2023-05-10T07:14:29;2.40;;;2.13;;
2872;SDS011;1444;49.166;7.312;2023-05-10T07:16:55;2.17;;;1.97;;
2872;SDS011;1444;49.166;7.312;2023-05-10T07:19:22;3.97;;;2.67;;
2872;SDS011;1444;49.166;7.312;2023-05-10T07:21:49;2.47;;;1.73;;
2872;SDS011;1444;49.166;7.312;2023-05-10T07:24:16;7.50;;;2.50;;
2872;SDS011;1444;49.166;7.312;2023-05-10T07:26:43;2.13;;;1.93;;
2872;SDS011;1444;49.166;7.312;2023-05-10T07:29:12;2.30;;;1.70;;
2872;SDS011;1444;49.166;7.312;2023-05-10T07:31:38;2.60;;;2.40;;
2872;SDS011;1444;49.166;7.312;2023-05-10T07:34:06;2.20;;;2.00;;
2872;SDS011;1444;49.166;7.312;2023-05-10T07:36:33;2.97;;;1.93;;
2872;SDS011;1444;49.166;7.312;2023-05-10T07:39:00;6.93;;;2.07;;
2872;SDS011;1444;49.166;7.312;2023-05-10T07:41:28;5.80;;;1.30;;
2872;SDS011;1444;49.166;7.312;2023-05-10T07:43:55;3.27;;;1.87;;
2872;SDS011;1444;49.166;7.312;2023-05-10T07:46:23;5.80;;;1.70;;
2872;SDS011;1444;49.166;7.312;2023-05-10T07:48:50;2.87;;;1.13;;
2872;SDS011;1444;49.166;7.312;2023-05-10T07:51:17;2.00;;;1.60;;
2872;SDS011;1444;49.166;7.312;2023-05-10T07:53:44;3.60;;;1.10;;
2872;SDS011;1444;49.166;7.312;2023-05-10T07:56:21;1.90;;;1.27;;
2872;SDS011;1444;49.166;7.312;2023-05-10T07:58:50;1.80;;;1.33;;
2872;SDS011;1444;49.166;7.312;2023-05-10T08:01:17;6.43;;;1.67;;
2872;SDS011;1444;49.166;7.312;2023-05-10T08:03:46;5.97;;;1.73;;
2872;SDS011;1444;49.166;7.312;2023-05-10T08:06:13;2.30;;;1.10;;
2872;SDS011;1444;49.166;7.312;2023-05-10T08:08:40;1.90;;;1.60;;
2872;SDS011;1444;49.166;7.312;2023-05-10T08:11:07;1.80;;;1.27;;
2872;SDS011;1444;49.166;7.312;2023-05-10T08:13:34;2.20;;;1.63;;
2872;SDS011;1444;49.166;7.312;2023-05-10T08:16:01;2.70;;;1.60;;
2872;SDS011;1444;49.166;7.312;2023-05-10T08:18:28;2.93;;;1.63;;
2872;SDS011;1444;49.166;7.312;2023-05-10T08:20:57;3.40;;;1.93;;
2872;SDS011;1444;49.166;7.312;2023-05-10T08:23:23;4.80;;;1.30;;
2872;SDS011;1444;49.166;7.312;2023-05-10T08:25:51;3.33;;;1.67;;
2872;SDS011;1444;49.166;7.312;2023-05-10T08:28:17;3.63;;;1.50;;
2872;SDS011;1444;49.166;7.312;2023-05-10T08:30:44;4.17;;;1.80;;
2872;SDS011;1444;49.166;7.312;2023-05-10T08:33:11;2.60;;;1.90;;
2872;SDS011;1444;49.166;7.312;2023-05-10T08:35:38;3.20;;;1.80;;
2872;SDS011;1444;49.166;7.312;2023-05-10T08:38:06;3.00;;;1.50;;
2872;SDS011;1444;49.166;7.312;2023-05-10T08:40:34;2.73;;;1.80;;
2872;SDS011;1444;49.166;7.312;2023-05-10T08:43:04;8.70;;;1.80;;
2872;SDS011;1444;49.166;7.312;2023-05-10T08:45:33;5.03;;;2.20;;
2872;SDS011;1444;49.166;7.312;2023-05-10T08:48:04;4.10;;;2.20;;
2872;SDS011;1444;49.166;7.312;2023-05-10T08:50:32;8.60;;;2.83;;
2872;SDS011;1444;49.166;7.312;2023-05-10T08:53:03;4.23;;;2.57;;
2872;SDS011;1444;49.166;7.312;2023-05-10T08:55:33;5.33;;;1.93;;
2872;SDS011;1444;49.166;7.312;2023-05-10T08:58:01;6.23;;;1.97;;
2872;SDS011;1444;49.166;7.312;2023-05-10T09:00:28;2.70;;;2.00;;
2872;SDS011;1444;49.166;7.312;2023-05-10T09:02:55;4.53;;;1.50;;
2872;SDS011;1444;49.166;7.312;2023-05-10T09:05:23;9.07;;;1.87;;
2872;SDS011;1444;49.166;7.312;2023-05-10T09:07:50;3.33;;;1.50;;
2872;SDS011;1444;49.166;7.312;2023-05-10T09:10:17;2.20;;;1.87;;
2872;SDS011;1444;49.166;7.312;2023-05-10T09:12:46;3.43;;;1.83;;
2872;SDS011;1444;49.166;7.312;2023-05-10T09:15:15;4.53;;;1.70;;
2872;SDS011;1444;49.166;7.312;2023-05-10T09:17:44;2.70;;;1.80;;
2872;SDS011;1444;49.166;7.312;2023-05-10T09:20:11;5.40;;;1.93;;
2872;SDS011;1444;49.166;7.312;2023-05-10T09:22:38;5.60;;;1.70;;
2872;SDS011;1444;49.166;7.312;2023-05-10T09:25:06;2.30;;;1.57;;
2872;SDS011;1444;49.166;7.312;2023-05-10T09:27:34;2.30;;;2.00;;
2872;SDS011;1444;49.166;7.312;2023-05-10T09:30:02;4.20;;;1.80;;
2872;SDS011;1444;49.166;7.312;2023-05-10T09:32:37;4.17;;;1.67;;
2872;SDS011;1444;49.166;7.312;2023-05-10T09:35:08;4.00;;;2.30;;
2872;SDS011;1444;49.166;7.312;2023-05-10T09:37:35;3.00;;;1.60;;
2872;SDS011;1444;49.166;7.312;2023-05-10T09:40:04;5.00;;;2.10;;
2872;SDS011;1444;49.166;7.312;2023-05-10T09:42:32;6.37;;;2.10;;
2872;SDS011;1444;49.166;7.312;2023-05-10T09:45:00;2.47;;;1.57;;
2872;SDS011;1444;49.166;7.312;2023-05-10T09:47:31;3.60;;;1.87;;
2872;SDS011;1444;49.166;7.312;2023-05-10T09:49:59;5.47;;;2.00;;
2872;SDS011;1444;49.166;7.312;2023-05-10T09:52:29;3.13;;;1.40;;
2872;SDS011;1444;49.166;7.312;2023-05-10T09:54:59;10.40;;;1.70;;
2872;SDS011;1444;49.166;7.312;2023-05-10T09:57:26;5.70;;;1.47;;
2872;SDS011;1444;49.166;7.312;2023-05-10T09:59:53;2.10;;;1.50;;
2872;SDS011;1444;49.166;7.312;2023-05-10T10:02:21;3.03;;;1.40;;
2872;SDS011;1444;49.166;7.312;2023-05-10T10:04:55;5.00;;;1.47;;
2872;SDS011;1444;49.166;7.312;2023-05-10T10:07:22;4.80;;;1.77;;
2872;SDS011;1444;49.166;7.312;2023-05-10T10:09:51;2.00;;;1.33;;
2872;SDS011;1444;49.166;7.312;2023-05-10T10:12:19;2.00;;;1.10;;
2872;SDS011;1444;49.166;7.312;2023-05-10T10:14:46;2.40;;;1.43;;
2872;SDS011;1444;49.166;7.312;2023-05-10T10:17:14;3.60;;;2.30;;
2872;SDS011;1444;49.166;7.312;2023-05-10T10:19:43;3.60;;;1.80;;
2872;SDS011;1444;49.166;7.312;2023-05-10T10:22:11;2.73;;;1.40;;
2872;SDS011;1444;49.166;7.312;2023-05-10T10:24:38;2.17;;;1.53;;
2872;SDS011;1444;49.166;7.312;2023-05-10T10:27:14;4.60;;;1.77;;
2872;SDS011;1444;49.166;7.312;2023-05-10T10:29:49;1.97;;;1.23;;
2872;SDS011;1444;49.166;7.312;2023-05-10T10:32:25;2.83;;;1.33;;
2872;SDS011;1444;49.166;7.312;2023-05-10T10:35:00;2.83;;;1.23;;
2872;SDS011;1444;49.166;7.312;2023-05-10T10:37:40;5.47;;;1.80;;
2872;SDS011;1444;49.166;7.312;2023-05-10T10:40:22;2.83;;;1.43;;
2872;SDS011;1444;49.166;7.312;2023-05-10T10:42:51;5.70;;;1.50;;
2872;SDS011;1444;49.166;7.312;2023-05-10T10:45:19;3.73;;;1.50;;
2872;SDS011;1444;49.166;7.312;2023-05-10T10:47:46;9.00;;;1.47;;
2872;SDS011;1444;49.166;7.312;2023-05-10T10:50:15;5.30;;;3.93;;
2872;SDS011;1444;49.166;7.312;2023-05-10T10:52:42;3.47;;;1.10;;
2872;SDS011;1444;49.166;7.312;2023-05-10T10:55:10;3.13;;;1.47;;
2872;SDS011;1444;49.166;7.312;2023-05-10T10:57:44;4.20;;;2.03;;
2872;SDS011;1444;49.166;7.312;2023-05-10T11:00:26;2.90;;;1.40;;
2872;SDS011;1444;49.166;7.312;2023-05-10T11:02:56;5.20;;;1.40;;
2872;SDS011;1444;49.166;7.312;2023-05-10T11:08:18;2.30;;;1.23;;
2872;SDS011;1444;49.166;7.312;2023-05-10T11:10:50;2.63;;;1.10;;
2872;SDS011;1444;49.166;7.312;2023-05-10T11:13:29;10.23;;;1.10;;
2872;SDS011;1444;49.166;7.312;2023-05-10T11:15:57;2.17;;;1.40;;
2872;SDS011;1444;49.166;7.312;2023-05-10T11:18:25;7.83;;;1.67;;
2872;SDS011;1444;49.166;7.312;2023-05-10T11:20:56;2.50;;;0.90;;
2872;SDS011;1444;49.166;7.312;2023-05-10T11:23:29;3.80;;;1.37;;
2872;SDS011;1444;49.166;7.312;2023-05-10T11:25:57;3.10;;;1.30;;
2872;SDS011;1444;49.166;7.312;2023-05-10T11:28:24;1.90;;;1.17;;
2872;SDS011;1444;49.166;7.312;2023-05-10T11:30:53;2.67;;;1.40;;
2872;SDS011;1444;49.166;7.312;2023-05-10T11:33:21;3.83;;;1.53;;
2872;SDS011;1444;49.166;7.312;2023-05-10T11:35:48;2.40;;;1.20;;
2872;SDS011;1444;49.166;7.312;2023-05-10T11:38:16;4.83;;;1.20;;
2872;SDS011;1444;49.166;7.312;2023-05-10T11:40:43;2.83;;;1.20;;
2872;SDS011;1444;49.166;7.312;2023-05-10T11:43:10;6.33;;;1.77;;
2872;SDS011;1444;49.166;7.312;2023-05-10T11:45:37;3.23;;;1.03;;
2872;SDS011;1444;49.166;7.312;2023-05-10T11:48:06;2.17;;;1.20;;
2872;SDS011;1444;49.166;7.312;2023-05-10T11:50:33;2.23;;;1.43;;
2872;SDS011;1444;49.166;7.312;2023-05-10T11:53:00;1.93;;;1.10;;
2872;SDS011;1444;49.166;7.312;2023-05-10T11:55:28;1.83;;;1.20;;
2872;SDS011;1444;49.166;7.312;2023-05-10T11:57:59;2.33;;;1.00;;
2872;SDS011;1444;49.166;7.312;2023-05-10T12:00:27;1.90;;;1.10;;
2872;SDS011;1444;49.166;7.312;2023-05-10T12:02:54;4.63;;;1.40;;
2872;SDS011;1444;49.166;7.312;2023-05-10T12:05:21;2.53;;;1.20;;
2872;SDS011;1444;49.166;7.312;2023-05-10T12:07:48;1.80;;;1.10;;
2872;SDS011;1444;49.166;7.312;2023-05-10T12:10:15;3.67;;;1.20;;
2872;SDS011;1444;49.166;7.312;2023-05-10T12:12:51;5.87;;;1.50;;
2872;SDS011;1444;49.166;7.312;2023-05-10T12:15:19;4.47;;;1.30;;
2872;SDS011;1444;49.166;7.312;2023-05-10T12:17:47;1.80;;;1.10;;
2872;SDS011;1444;49.166;7.312;2023-05-10T12:20:15;7.13;;;1.00;;
2872;SDS011;1444;49.166;7.312;2023-05-10T12:22:46;4.03;;;1.27;;
2872;SDS011;1444;49.166;7.312;2023-05-10T12:25:15;3.17;;;1.40;;
2872;SDS011;1444;49.166;7.312;2023-05-10T12:27:47;2.43;;;1.00;;
2872;SDS011;1444;49.166;7.312;2023-05-10T12:30:20;2.43;;;1.20;;
2872;SDS011;1444;49.166;7.312;2023-05-10T12:32:47;2.00;;;0.83;;
2872;SDS011;1444;49.166;7.312;2023-05-10T12:35:14;2.20;;;1.00;;
2872;SDS011;1444;49.166;7.312;2023-05-10T12:37:42;3.17;;;1.27;;
2872;SDS011;1444;49.166;7.312;2023-05-10T12:40:10;2.30;;;1.50;;
2872;SDS011;1444;49.166;7.312;2023-05-10T12:42:37;3.07;;;0.93;;
2872;SDS011;1444;49.166;7.312;2023-05-10T12:45:05;1.90;;;0.93;;
2872;SDS011;1444;49.166;7.312;2023-05-10T12:47:35;1.80;;;1.20;;
2872;SDS011;1444;49.166;7.312;2023-05-10T12:50:02;2.00;;;1.10;;
2872;SDS011;1444;49.166;7.312;2023-05-10T12:52:29;3.03;;;1.20;;
2872;SDS011;1444;49.166;7.312;2023-05-10T12:54:57;2.03;;;1.23;;
2872;SDS011;1444;49.166;7.312;2023-05-10T12:57:25;2.43;;;1.00;;
2872;SDS011;1444;49.166;7.312;2023-05-10T12:59:52;4.93;;;1.13;;
2872;SDS011;1444;49.166;7.312;2023-05-10T13:02:19;4.00;;;1.07;;
2872;SDS011;1444;49.166;7.312;2023-05-10T13:04:47;2.03;;;1.27;;
2872;SDS011;1444;49.166;7.312;2023-05-10T13:07:14;2.63;;;1.27;;
2872;SDS011;1444;49.166;7.312;2023-05-10T13:09:41;5.60;;;1.17;;
2872;SDS011;1444;49.166;7.312;2023-05-10T13:12:08;1.80;;;1.10;;
2872;SDS011;1444;49.166;7.312;2023-05-10T13:14:35;2.90;;;1.20;;
2872;SDS011;1444;49.166;7.312;2023-05-10T13:17:02;1.90;;;1.10;;
2872;SDS011;1444;49.166;7.312;2023-05-10T13:19:29;3.07;;;1.10;;
2872;SDS011;1444;49.166;7.312;2023-05-10T13:21:57;2.87;;;1.00;;
2872;SDS011;1444;49.166;7.312;2023-05-10T13:24:24;5.50;;;0.80;;
2872;SDS011;1444;49.166;7.312;2023-05-10T13:26:51;4.03;;;0.93;;
2872;SDS011;1444;49.166;7.312;2023-05-10T13:29:18;2.37;;;1.10;;
2872;SDS011;1444;49.166;7.312;2023-05-10T13:31:46;2.30;;;0.83;;
2872;SDS011;1444;49.166;7.312;2023-05-10T13:34:12;1.70;;;0.90;;
2872;SDS011;1444;49.166;7.312;2023-05-10T13:36:39;2.47;;;1.10;;
2872;SDS011;1444;49.166;7.312;2023-05-10T13:39:07;7.40;;;0.90;;
2872;SDS011;1444;49.166;7.312;2023-05-10T13:41:34;2.10;;;0.80;;
2872;SDS011;1444;49.166;7.312;2023-05-10T13:44:01;2.93;;;0.93;;
2872;SDS011;1444;49.166;7.312;2023-05-10T13:46:28;5.27;;;0.97;;
2872;SDS011;1444;49.166;7.312;2023-05-10T13:48:55;2.97;;;1.00;;
2872;SDS011;1444;49.166;7.312;2023-05-10T13:51:22;2.27;;;0.83;;
2872;SDS011;1444;49.166;7.312;2023-05-10T13:53:50;3.23;;;0.90;;
2872;SDS011;1444;49.166;7.312;2023-05-10T13:56:18;1.70;;;0.80;;
2872;SDS011;1444;49.166;7.312;2023-05-10T13:58:45;2.80;;;1.10;;
2872;SDS011;1444;49.166;7.312;2023-05-10T14:01:12;4.83;;;0.93;;
2872;SDS011;1444;49.166;7.312;2023-05-10T14:03:40;2.20;;;0.80;;
2872;SDS011;1444;49.166;7.312;2023-05-10T14:06:07;1.80;;;0.87;;
2872;SDS011;1444;49.166;7.312;2023-05-10T14:08:34;1.70;;;0.80;;
2872;SDS011;1444;49.166;7.312;2023-05-10T14:11:02;2.30;;;0.80;;
2872;SDS011;1444;49.166;7.312;2023-05-10T14:13:30;1.87;;;0.70;;
2872;SDS011;1444;49.166;7.312;2023-05-10T14:15:57;2.97;;;0.70;;
2872;SDS011;1444;49.166;7.312;2023-05-10T14:18:25;3.17;;;0.70;;
2872;SDS011;1444;49.166;7.312;2023-05-10T14:20:52;1.90;;;0.70;;
2872;SDS011;1444;49.166;7.312;2023-05-10T14:23:19;2.90;;;1.00;;
2872;SDS011;1444;49.166;7.312;2023-05-10T14:25:49;1.60;;;0.70;;
2872;SDS011;1444;49.166;7.312;2023-05-10T14:28:16;1.60;;;0.60;;
2872;SDS011;1444;49.166;7.312;2023-05-10T14:30:44;2.90;;;0.80;;
2872;SDS011;1444;49.166;7.312;2023-05-10T14:33:11;2.00;;;0.77;;
2872;SDS011;1444;49.166;7.312;2023-05-10T14:35:38;2.30;;;0.70;;
2872;SDS011;1444;49.166;7.312;2023-05-10T14:38:05;1.90;;;0.70;;
2872;SDS011;1444;49.166;7.312;2023-05-10T14:40:32;1.70;;;0.70;;
2872;SDS011;1444;49.166;7.312;2023-05-10T14:42:59;2.10;;;0.70;;
2872;SDS011;1444;49.166;7.312;2023-05-10T14:45:26;1.87;;;0.70;;
2872;SDS011;1444;49.166;7.312;2023-05-10T14:47:54;1.60;;;0.70;;
2872;SDS011;1444;49.166;7.312;2023-05-10T14:50:21;1.60;;;0.70;;
2872;SDS011;1444;49.166;7.312;2023-05-10T14:52:48;1.60;;;0.70;;
2872;SDS011;1444;49.166;7.312;2023-05-10T14:55:15;2.80;;;0.73;;
2872;SDS011;1444;49.166;7.312;2023-05-10T14:57:42;3.23;;;1.00;;
2872;SDS011;1444;49.166;7.312;2023-05-10T15:00:12;1.70;;;0.97;;
2872;SDS011;1444;49.166;7.312;2023-05-10T15:02:41;1.67;;;0.80;;
2872;SDS011;1444;49.166;7.312;2023-05-10T15:05:09;1.60;;;0.70;;
2872;SDS011;1444;49.166;7.312;2023-05-10T15:07:36;2.00;;;1.07;;
2872;SDS011;1444;49.166;7.312;2023-05-10T15:10:04;1.73;;;0.90;;
2872;SDS011;1444;49.166;7.312;2023-05-10T15:12:31;10.30;;;1.37;;
2872;SDS011;1444;49.166;7.312;2023-05-10T15:14:58;3.70;;;0.70;;
2872;SDS011;1444;49.166;7.312;2023-05-10T15:17:25;2.13;;;0.73;;
2872;SDS011;1444;49.166;7.312;2023-05-10T15:19:52;1.60;;;0.70;;
2872;SDS011;1444;49.166;7.312;2023-05-10T15:22:20;2.43;;;0.90;;
2872;SDS011;1444;49.166;7.312;2023-05-10T15:24:47;1.80;;;0.90;;
2872;SDS011;1444;49.166;7.312;2023-05-10T15:27:14;1.70;;;0.70;;
2872;SDS011;1444;49.166;7.312;2023-05-10T15:29:41;1.60;;;0.97;;